FDX400 KLAX-KMEM
Flight info
| Callsign | FDX400 |
|---|---|
| Flight time | 3h 0m |
| Altitude | 35000 |
| Route | DOTSS2 CLEEE PKE HIDAT KA27O NABOB KA27Q KA27S IMMAS KA30Y KF30A IRW LITTR HOBRK4 |
| Aircraft | MD11/H-SDE1E2E3FGHIJ2J3J4J5M1RWXY/LB1D1 |
Departure
| Time | 2026-04-22 21:49 |
|---|---|
| Airport | Los Angeles International Airport (KLAX) |
Arrival
| Time | 2026-04-23 00:49 |
|---|---|
| Airport | Memphis International Airport (KMEM) |
| Time | Latitude | Longitude | Altitude | Speed | Heading |
|---|---|---|---|---|---|
| 2026-04-22 21:27 | 33.93398 | -118.38909 | 108 ft | 0 kts | 173° |
| 2026-04-22 21:38 | 33.93400 | -118.38910 | 109 ft | 1 kts | 173° |
| 2026-04-22 21:39 | 33.93414 | -118.38911 | 109 ft | 2 kts | 173° |
| 2026-04-22 21:39 | 33.93429 | -118.38914 | 109 ft | 2 kts | 173° |
| 2026-04-22 21:39 | 33.93444 | -118.38916 | 109 ft | 2 kts | 173° |
| 2026-04-22 21:39 | 33.93459 | -118.38918 | 109 ft | 2 kts | 173° |
| 2026-04-22 21:40 | 33.93474 | -118.38921 | 109 ft | 2 kts | 173° |
| 2026-04-22 21:40 | 33.93489 | -118.38923 | 109 ft | 2 kts | 173° |
| 2026-04-22 21:40 | 33.93504 | -118.38924 | 109 ft | 2 kts | 173° |
| 2026-04-22 21:40 | 33.93519 | -118.38927 | 109 ft | 2 kts | 173° |
| 2026-04-22 21:41 | 33.93534 | -118.38929 | 108 ft | 2 kts | 169° |
| 2026-04-22 21:41 | 33.93544 | -118.38939 | 109 ft | 2 kts | 110° |
| 2026-04-22 21:41 | 33.93545 | -118.38955 | 109 ft | 2 kts | 77° |
| 2026-04-22 21:41 | 33.93542 | -118.38972 | 109 ft | 0 kts | 82° |
| 2026-04-22 21:42 | 33.93542 | -118.38974 | 109 ft | 0 kts | 83° |
| 2026-04-22 21:44 | 33.93542 | -118.38970 | 109 ft | 1 kts | 83° |
| 2026-04-22 21:44 | 33.93546 | -118.38936 | 108 ft | 7 kts | 83° |
| 2026-04-22 21:44 | 33.93557 | -118.38836 | 107 ft | 14 kts | 83° |
| 2026-04-22 21:44 | 33.93570 | -118.38710 | 107 ft | 16 kts | 83° |
| 2026-04-22 21:45 | 33.93584 | -118.38570 | 107 ft | 17 kts | 83° |
| 2026-04-22 21:45 | 33.93599 | -118.38416 | 106 ft | 20 kts | 83° |
| 2026-04-22 21:45 | 33.93619 | -118.38299 | 104 ft | 9 kts | 44° |
| 2026-04-22 21:45 | 33.93631 | -118.38290 | 104 ft | 0 kts | 22° |
| 2026-04-22 21:46 | 33.93632 | -118.38290 | 104 ft | 1 kts | 21° |
| 2026-04-22 21:46 | 33.93652 | -118.38285 | 104 ft | 5 kts | 4° |
| 2026-04-22 21:46 | 33.93708 | -118.38289 | 104 ft | 9 kts | 354° |
| 2026-04-22 21:47 | 33.93733 | -118.38332 | 104 ft | 7 kts | 265° |
| 2026-04-22 21:47 | 33.93731 | -118.38344 | 104 ft | 0 kts | 264° |
| 2026-04-22 21:48 | 33.93713 | -118.38525 | 107 ft | 53 kts | 263° |
| 2026-04-22 21:48 | 33.93639 | -118.39223 | 111 ft | 114 kts | 263° |
| 2026-04-22 21:49 | 33.93523 | -118.40377 | 126 ft | 163 kts | 263° |
| 2026-04-22 21:49 | 33.93392 | -118.41787 | 513 ft | 170 kts | 264° |
| 2026-04-22 21:49 | 33.93293 | -118.43190 | 1068 ft | 168 kts | 265° |
| 2026-04-22 21:49 | 33.93156 | -118.44630 | 1487 ft | 181 kts | 259° |
| 2026-04-22 21:50 | 33.92672 | -118.46067 | 1962 ft | 190 kts | 242° |
| 2026-04-22 21:50 | 33.91992 | -118.47388 | 2727 ft | 185 kts | 238° |
| 2026-04-22 21:50 | 33.91250 | -118.48632 | 3378 ft | 187 kts | 234° |
| 2026-04-22 21:50 | 33.90401 | -118.49874 | 3833 ft | 199 kts | 231° |
| 2026-04-22 21:51 | 33.89443 | -118.51153 | 4168 ft | 218 kts | 226° |
| 2026-04-22 21:51 | 33.88005 | -118.52020 | 4454 ft | 244 kts | 192° |
| 2026-04-22 21:51 | 33.86264 | -118.52169 | 5094 ft | 261 kts | 181° |
| 2026-04-22 21:52 | 33.82520 | -118.51921 | 6787 ft | 281 kts | 179° |
| 2026-04-22 21:52 | 33.80562 | -118.51834 | 7722 ft | 287 kts | 181° |
| 2026-04-22 21:52 | 33.78563 | -118.51824 | 8662 ft | 292 kts | 182° |
| 2026-04-22 21:52 | 33.76516 | -118.51870 | 9595 ft | 296 kts | 183° |
| 2026-04-22 21:53 | 33.74461 | -118.51918 | 10404 ft | 305 kts | 179° |
| 2026-04-22 21:53 | 33.72299 | -118.51315 | 10694 ft | 335 kts | 156° |
| 2026-04-22 21:53 | 33.70221 | -118.49783 | 11069 ft | 362 kts | 142° |
| 2026-04-22 21:53 | 33.68440 | -118.47515 | 11307 ft | 393 kts | 126° |
| 2026-04-22 21:54 | 33.67137 | -118.44486 | 11541 ft | 421 kts | 111° |
| 2026-04-22 21:54 | 33.66198 | -118.41080 | 12197 ft | 435 kts | 108° |
| 2026-04-22 21:54 | 33.65346 | -118.37589 | 12961 ft | 445 kts | 105° |
| 2026-04-22 21:54 | 33.64694 | -118.33910 | 13760 ft | 454 kts | 99° |
| 2026-04-22 21:55 | 33.64398 | -118.30164 | 14551 ft | 462 kts | 92° |
| 2026-04-22 21:55 | 33.64362 | -118.26240 | 15337 ft | 470 kts | 90° |
| 2026-04-22 21:55 | 33.64410 | -118.22321 | 16094 ft | 477 kts | 89° |
| 2026-04-22 21:55 | 33.64455 | -118.18305 | 16840 ft | 485 kts | 90° |
| 2026-04-22 21:56 | 33.64470 | -118.14257 | 17574 ft | 492 kts | 90° |
| 2026-04-22 21:56 | 33.64466 | -118.10164 | 18288 ft | 500 kts | 90° |
| 2026-04-22 21:56 | 33.64452 | -118.05992 | 18994 ft | 507 kts | 91° |
| 2026-04-22 21:56 | 33.64435 | -118.01709 | 19688 ft | 514 kts | 91° |
| 2026-04-22 21:57 | 33.64418 | -117.97424 | 20352 ft | 521 kts | 91° |
| 2026-04-22 21:57 | 33.64408 | -117.93041 | 21023 ft | 528 kts | 91° |
| 2026-04-22 21:57 | 33.64404 | -117.88637 | 21682 ft | 534 kts | 91° |
| 2026-04-22 21:57 | 33.64405 | -117.84195 | 22330 ft | 540 kts | 91° |
| 2026-04-22 21:58 | 33.64498 | -117.79698 | 22959 ft | 546 kts | 86° |
| 2026-04-22 21:58 | 33.65035 | -117.75164 | 23598 ft | 552 kts | 78° |
| 2026-04-22 21:58 | 33.65897 | -117.70647 | 24227 ft | 558 kts | 76° |
| 2026-04-22 21:58 | 33.66868 | -117.66111 | 24856 ft | 563 kts | 75° |
| 2026-04-22 21:59 | 33.67829 | -117.61580 | 25474 ft | 569 kts | 76° |
| 2026-04-22 21:59 | 33.68757 | -117.56941 | 26092 ft | 574 kts | 77° |
| 2026-04-22 21:59 | 33.69657 | -117.52245 | 26706 ft | 579 kts | 77° |
| 2026-04-22 21:59 | 33.70541 | -117.47536 | 27380 ft | 582 kts | 77° |
| 2026-04-22 22:00 | 33.71423 | -117.42806 | 28135 ft | 583 kts | 77° |
| 2026-04-22 22:00 | 33.72313 | -117.38057 | 28962 ft | 582 kts | 77° |
| 2026-04-22 22:00 | 33.73205 | -117.33374 | 29811 ft | 581 kts | 77° |
| 2026-04-22 22:00 | 33.74115 | -117.28675 | 30653 ft | 580 kts | 76° |
| 2026-04-22 22:01 | 33.74963 | -117.23931 | 31481 ft | 579 kts | 81° |
| 2026-04-22 22:01 | 33.75430 | -117.19203 | 32271 ft | 577 kts | 87° |
| 2026-04-22 22:01 | 33.75478 | -117.14387 | 33028 ft | 575 kts | 94° |
| 2026-04-22 22:01 | 33.75219 | -117.09652 | 33708 ft | 574 kts | 96° |
| 2026-04-22 22:02 | 33.74902 | -117.04869 | 34315 ft | 574 kts | 96° |
| 2026-04-22 22:02 | 33.74660 | -117.00097 | 34881 ft | 575 kts | 94° |
| 2026-04-22 22:02 | 33.74509 | -116.95347 | 35408 ft | 575 kts | 93° |
| 2026-04-22 22:02 | 33.74372 | -116.90556 | 35918 ft | 576 kts | 93° |
| 2026-04-22 22:03 | 33.74236 | -116.85745 | 36354 ft | 576 kts | 93° |
| 2026-04-22 22:03 | 33.74110 | -116.80947 | 36756 ft | 576 kts | 93° |
| 2026-04-22 22:03 | 33.73984 | -116.76196 | 36825 ft | 575 kts | 93° |
| 2026-04-22 22:03 | 33.73851 | -116.71359 | 36642 ft | 573 kts | 93° |
| 2026-04-22 22:04 | 33.73726 | -116.66655 | 36622 ft | 571 kts | 93° |
| 2026-04-22 22:04 | 33.73486 | -116.57111 | 36696 ft | 575 kts | 93° |
| 2026-04-22 22:05 | 33.73245 | -116.47504 | 36888 ft | 576 kts | 93° |
| 2026-04-22 22:05 | 33.73130 | -116.42704 | 37016 ft | 577 kts | 93° |
| 2026-04-22 22:05 | 33.73018 | -116.37923 | 37009 ft | 578 kts | 92° |
| 2026-04-22 22:06 | 33.72794 | -116.28239 | 37031 ft | 577 kts | 93° |
| 2026-04-22 22:06 | 33.72577 | -116.18658 | 37079 ft | 576 kts | 93° |
| 2026-04-22 22:07 | 33.72546 | -116.09092 | 37092 ft | 577 kts | 86° |
| 2026-04-22 22:07 | 33.73997 | -115.99634 | 36898 ft | 578 kts | 71° |
| 2026-04-22 22:07 | 33.75312 | -115.95070 | 36606 ft | 575 kts | 66° |
| 2026-04-22 22:08 | 33.76740 | -115.90649 | 36338 ft | 574 kts | 66° |
| 2026-04-22 22:08 | 33.78135 | -115.86150 | 36095 ft | 573 kts | 68° |
| 2026-04-22 22:08 | 33.79418 | -115.81674 | 36029 ft | 571 kts | 69° |
| 2026-04-22 22:09 | 33.81873 | -115.72589 | 35927 ft | 573 kts | 70° |
| 2026-04-22 22:09 | 33.84307 | -115.63464 | 36096 ft | 574 kts | 70° |
| 2026-04-22 22:09 | 33.85546 | -115.58874 | 36375 ft | 574 kts | 70° |
| 2026-04-22 22:10 | 33.86785 | -115.54331 | 36642 ft | 576 kts | 69° |
| 2026-04-22 22:10 | 33.88032 | -115.49786 | 36926 ft | 576 kts | 69° |
| 2026-04-22 22:10 | 33.89291 | -115.45195 | 37072 ft | 577 kts | 69° |
| 2026-04-22 22:11 | 33.91793 | -115.36062 | 37146 ft | 577 kts | 69° |
| 2026-04-22 22:11 | 33.94318 | -115.26888 | 37175 ft | 575 kts | 69° |
| 2026-04-22 22:12 | 33.96824 | -115.17816 | 37123 ft | 575 kts | 69° |
| 2026-04-22 22:12 | 33.99353 | -115.08671 | 37085 ft | 575 kts | 69° |
| 2026-04-22 22:13 | 34.01858 | -114.99531 | 37083 ft | 575 kts | 70° |
| 2026-04-22 22:13 | 34.04275 | -114.90336 | 37084 ft | 575 kts | 70° |
| 2026-04-22 22:14 | 34.06711 | -114.81221 | 37068 ft | 574 kts | 70° |
| 2026-04-22 22:14 | 34.09163 | -114.72057 | 37058 ft | 574 kts | 70° |
| 2026-04-22 22:15 | 34.11633 | -114.62942 | 37049 ft | 573 kts | 69° |
| 2026-04-22 22:15 | 34.14157 | -114.53817 | 37044 ft | 574 kts | 69° |
| 2026-04-22 22:16 | 34.16644 | -114.44694 | 37037 ft | 574 kts | 69° |
| 2026-04-22 22:16 | 34.19137 | -114.35564 | 37025 ft | 573 kts | 69° |
| 2026-04-22 22:17 | 34.21644 | -114.26431 | 36996 ft | 573 kts | 69° |
| 2026-04-22 22:17 | 34.24142 | -114.17369 | 36985 ft | 573 kts | 69° |
| 2026-04-22 22:18 | 34.26670 | -114.08212 | 36981 ft | 573 kts | 69° |
| 2026-04-22 22:18 | 34.29198 | -113.99078 | 36980 ft | 573 kts | 69° |
| 2026-04-22 22:19 | 34.31733 | -113.89977 | 36992 ft | 573 kts | 69° |
| 2026-04-22 22:19 | 34.34264 | -113.80882 | 37006 ft | 573 kts | 69° |
| 2026-04-22 22:20 | 34.36801 | -113.71825 | 37017 ft | 572 kts | 69° |
| 2026-04-22 22:20 | 34.39270 | -113.62638 | 36941 ft | 572 kts | 70° |
| 2026-04-22 22:21 | 34.41657 | -113.53526 | 36699 ft | 572 kts | 70° |
| 2026-04-22 22:21 | 34.42878 | -113.48929 | 36502 ft | 571 kts | 69° |
| 2026-04-22 22:21 | 34.44105 | -113.44368 | 36333 ft | 569 kts | 69° |
| 2026-04-22 22:22 | 34.46533 | -113.35289 | 36210 ft | 567 kts | 70° |
| 2026-04-22 22:22 | 34.47741 | -113.30773 | 36389 ft | 567 kts | 70° |
| 2026-04-22 22:22 | 34.48963 | -113.26231 | 36574 ft | 568 kts | 70° |
| 2026-04-22 22:22 | 34.50182 | -113.21712 | 36797 ft | 570 kts | 70° |
| 2026-04-22 22:23 | 34.51418 | -113.17116 | 37056 ft | 571 kts | 70° |
| 2026-04-22 22:23 | 34.53882 | -113.07982 | 37180 ft | 570 kts | 70° |
| 2026-04-22 22:24 | 34.56097 | -112.98756 | 37244 ft | 573 kts | 78° |
| 2026-04-22 22:24 | 34.56853 | -112.89194 | 37254 ft | 574 kts | 92° |
| 2026-04-22 22:25 | 34.56068 | -112.79655 | 37226 ft | 569 kts | 103° |
| 2026-04-22 22:25 | 34.54797 | -112.70200 | 37205 ft | 570 kts | 99° |
| 2026-04-22 22:26 | 34.54045 | -112.60673 | 37200 ft | 570 kts | 96° |
| 2026-04-22 22:26 | 34.53433 | -112.51081 | 37193 ft | 570 kts | 96° |
| 2026-04-22 22:27 | 34.52770 | -112.41502 | 37189 ft | 569 kts | 96° |
| 2026-04-22 22:27 | 34.52105 | -112.31955 | 37151 ft | 569 kts | 97° |
| 2026-04-22 22:28 | 34.51468 | -112.22446 | 37100 ft | 568 kts | 96° |
| 2026-04-22 22:28 | 34.50835 | -112.12925 | 37066 ft | 568 kts | 96° |
| 2026-04-22 22:29 | 34.50165 | -112.03432 | 37036 ft | 567 kts | 99° |
| 2026-04-22 22:29 | 34.48662 | -111.94128 | 37032 ft | 563 kts | 109° |
| 2026-04-22 22:30 | 34.46312 | -111.85078 | 37029 ft | 562 kts | 111° |
| 2026-04-22 22:30 | 34.43942 | -111.76110 | 37034 ft | 562 kts | 110° |
| 2026-04-22 22:31 | 34.41667 | -111.67055 | 37046 ft | 561 kts | 110° |
| 2026-04-22 22:31 | 34.39417 | -111.58025 | 37093 ft | 561 kts | 110° |
| 2026-04-22 22:32 | 34.37158 | -111.49058 | 37152 ft | 561 kts | 110° |
| 2026-04-22 22:32 | 34.34912 | -111.40057 | 37180 ft | 561 kts | 110° |
| 2026-04-22 22:33 | 34.33228 | -111.30817 | 37187 ft | 564 kts | 98° |
| 2026-04-22 22:33 | 34.33111 | -111.21368 | 37187 ft | 566 kts | 84° |
| 2026-04-22 22:34 | 34.34580 | -111.12049 | 37198 ft | 565 kts | 73° |
| 2026-04-22 22:34 | 34.36503 | -111.02908 | 37213 ft | 566 kts | 78° |
| 2026-04-22 22:35 | 34.37830 | -110.93510 | 37240 ft | 566 kts | 81° |
| 2026-04-22 22:35 | 34.38938 | -110.84130 | 37252 ft | 566 kts | 81° |
| 2026-04-22 22:36 | 34.40173 | -110.74728 | 37278 ft | 565 kts | 80° |
| 2026-04-22 22:36 | 34.41389 | -110.65383 | 37279 ft | 564 kts | 81° |
| 2026-04-22 22:37 | 34.42613 | -110.56000 | 37270 ft | 564 kts | 80° |
| 2026-04-22 22:37 | 34.43874 | -110.46653 | 37243 ft | 563 kts | 80° |
| 2026-04-22 22:38 | 34.45103 | -110.37352 | 37216 ft | 563 kts | 80° |
| 2026-04-22 22:38 | 34.46361 | -110.27989 | 37169 ft | 562 kts | 81° |
| 2026-04-22 22:39 | 34.47593 | -110.18684 | 37145 ft | 562 kts | 82° |
| 2026-04-22 22:39 | 34.48732 | -110.09302 | 37130 ft | 562 kts | 82° |
| 2026-04-22 22:40 | 34.49794 | -109.99937 | 37119 ft | 562 kts | 85° |
| 2026-04-22 22:40 | 34.50153 | -109.90552 | 37106 ft | 561 kts | 91° |
| 2026-04-22 22:41 | 34.50077 | -109.81145 | 37110 ft | 561 kts | 92° |
| 2026-04-22 22:41 | 34.50039 | -109.71687 | 37113 ft | 561 kts | 91° |
| 2026-04-22 22:42 | 34.50064 | -109.62237 | 37109 ft | 560 kts | 91° |
| 2026-04-22 22:42 | 34.50064 | -109.52873 | 37104 ft | 560 kts | 91° |
| 2026-04-22 22:43 | 34.50100 | -109.43434 | 37102 ft | 559 kts | 90° |
| 2026-04-22 22:43 | 34.50116 | -109.34054 | 37099 ft | 559 kts | 91° |
| 2026-04-22 22:44 | 34.50162 | -109.24631 | 37091 ft | 558 kts | 91° |
| 2026-04-22 22:44 | 34.50195 | -109.15305 | 37092 ft | 559 kts | 91° |
| 2026-04-22 22:45 | 34.50256 | -109.05885 | 37097 ft | 559 kts | 90° |
| 2026-04-22 22:45 | 34.50303 | -108.96516 | 37104 ft | 558 kts | 90° |
| 2026-04-22 22:46 | 34.50356 | -108.87134 | 37114 ft | 557 kts | 91° |
| 2026-04-22 22:46 | 34.50265 | -108.77799 | 37126 ft | 556 kts | 91° |
| 2026-04-22 22:47 | 34.50175 | -108.68411 | 37135 ft | 556 kts | 91° |
| 2026-04-22 22:47 | 34.50120 | -108.59064 | 37146 ft | 556 kts | 90° |
| 2026-04-22 22:48 | 34.50069 | -108.49735 | 37155 ft | 556 kts | 90° |
| 2026-04-22 22:48 | 34.50032 | -108.40382 | 37160 ft | 556 kts | 90° |
| 2026-04-22 22:49 | 34.49994 | -108.31027 | 37157 ft | 555 kts | 91° |
| 2026-04-22 22:49 | 34.49970 | -108.21724 | 37162 ft | 554 kts | 90° |
| 2026-04-22 22:50 | 34.49948 | -108.12421 | 37169 ft | 553 kts | 90° |
| 2026-04-22 22:50 | 34.49994 | -108.03089 | 37172 ft | 553 kts | 87° |
| 2026-04-22 22:51 | 34.50711 | -107.93861 | 37180 ft | 553 kts | 80° |
| 2026-04-22 22:51 | 34.51889 | -107.84683 | 37182 ft | 553 kts | 80° |
| 2026-04-22 22:52 | 34.53004 | -107.75460 | 37177 ft | 553 kts | 81° |
| 2026-04-22 22:52 | 34.54069 | -107.66236 | 37152 ft | 552 kts | 81° |
| 2026-04-22 22:53 | 34.55125 | -107.57101 | 37098 ft | 551 kts | 80° |
| 2026-04-22 22:53 | 34.56205 | -107.47935 | 37042 ft | 550 kts | 80° |
| 2026-04-22 22:54 | 34.57299 | -107.38753 | 37004 ft | 550 kts | 80° |
| 2026-04-22 22:54 | 34.58395 | -107.29605 | 36977 ft | 550 kts | 80° |
| 2026-04-22 22:55 | 34.59502 | -107.20421 | 36986 ft | 550 kts | 80° |
| 2026-04-22 22:55 | 34.61179 | -107.06718 | 36996 ft | 549 kts | 80° |
| 2026-04-22 22:56 | 34.62306 | -106.97562 | 36992 ft | 549 kts | 79° |
| 2026-04-22 22:56 | 34.63421 | -106.88432 | 36974 ft | 548 kts | 81° |
| 2026-04-22 22:57 | 34.64399 | -106.79262 | 36954 ft | 548 kts | 81° |
| 2026-04-22 22:57 | 34.65360 | -106.70128 | 36938 ft | 547 kts | 81° |
| 2026-04-22 22:58 | 34.66357 | -106.61016 | 36940 ft | 546 kts | 80° |
| 2026-04-22 22:58 | 34.67364 | -106.51865 | 36964 ft | 546 kts | 80° |
| 2026-04-22 22:59 | 34.68371 | -106.42780 | 37003 ft | 545 kts | 80° |
| 2026-04-22 22:59 | 34.69393 | -106.33659 | 37042 ft | 545 kts | 81° |
| 2026-04-22 23:00 | 34.70418 | -106.24522 | 37081 ft | 544 kts | 80° |
| 2026-04-22 23:00 | 34.71447 | -106.15470 | 37102 ft | 544 kts | 80° |
| 2026-04-22 23:01 | 34.72478 | -106.06398 | 37091 ft | 543 kts | 80° |
| 2026-04-22 23:01 | 34.73528 | -105.97290 | 37041 ft | 542 kts | 80° |
| 2026-04-22 23:02 | 34.74548 | -105.88253 | 37019 ft | 542 kts | 81° |
| 2026-04-22 23:02 | 34.75438 | -105.79184 | 37015 ft | 542 kts | 81° |
| 2026-04-22 23:03 | 34.76320 | -105.70100 | 37025 ft | 540 kts | 81° |
| 2026-04-22 23:03 | 34.77232 | -105.61044 | 37036 ft | 539 kts | 80° |
| 2026-04-22 23:04 | 34.78151 | -105.52020 | 37035 ft | 538 kts | 80° |
| 2026-04-22 23:04 | 34.79073 | -105.43002 | 36999 ft | 538 kts | 80° |
| 2026-04-22 23:05 | 34.80003 | -105.34006 | 36967 ft | 538 kts | 81° |
| 2026-04-22 23:05 | 34.80938 | -105.24996 | 36939 ft | 538 kts | 81° |
| 2026-04-22 23:06 | 34.81877 | -105.16058 | 36907 ft | 538 kts | 80° |
| 2026-04-22 23:06 | 34.82828 | -105.07013 | 36871 ft | 537 kts | 80° |
| 2026-04-22 23:07 | 34.83782 | -104.98069 | 36855 ft | 536 kts | 80° |
| 2026-04-22 23:07 | 34.84731 | -104.89093 | 36849 ft | 536 kts | 80° |
| 2026-04-22 23:08 | 34.85576 | -104.80082 | 36852 ft | 536 kts | 81° |
| 2026-04-22 23:08 | 34.86417 | -104.71078 | 36853 ft | 535 kts | 80° |
| 2026-04-22 23:09 | 34.87294 | -104.62085 | 36862 ft | 534 kts | 80° |
| 2026-04-22 23:09 | 34.88152 | -104.53130 | 36880 ft | 534 kts | 80° |
| 2026-04-22 23:10 | 34.88680 | -104.47817 | 36886 ft | 533 kts | 80° |
| 2026-04-22 23:10 | 34.89554 | -104.38856 | 36897 ft | 533 kts | 80° |
| 2026-04-22 23:11 | 34.90464 | -104.29906 | 36900 ft | 532 kts | 81° |
| 2026-04-22 23:11 | 34.91051 | -104.20995 | 36912 ft | 533 kts | 84° |
| 2026-04-22 23:12 | 34.91407 | -104.11959 | 36910 ft | 534 kts | 85° |
| 2026-04-22 23:12 | 34.91759 | -104.02979 | 36897 ft | 533 kts | 84° |
| 2026-04-22 23:13 | 34.92156 | -103.93997 | 36879 ft | 533 kts | 84° |
| 2026-04-22 23:13 | 34.92553 | -103.84998 | 36872 ft | 532 kts | 84° |
| 2026-04-22 23:14 | 34.92958 | -103.76025 | 36867 ft | 531 kts | 84° |
| 2026-04-22 23:14 | 34.93368 | -103.67075 | 36864 ft | 529 kts | 84° |
| 2026-04-22 23:15 | 34.93785 | -103.58150 | 36868 ft | 527 kts | 84° |
| 2026-04-22 23:15 | 34.94208 | -103.49252 | 36872 ft | 527 kts | 84° |
| 2026-04-22 23:16 | 34.94637 | -103.40345 | 36872 ft | 527 kts | 84° |
| 2026-04-22 23:16 | 34.95074 | -103.31417 | 36864 ft | 527 kts | 85° |
| 2026-04-22 23:17 | 34.95513 | -103.22549 | 36859 ft | 526 kts | 85° |
| 2026-04-22 23:17 | 34.95860 | -103.13671 | 36860 ft | 526 kts | 86° |
| 2026-04-22 23:18 | 34.96140 | -103.04826 | 36865 ft | 525 kts | 86° |
| 2026-04-22 23:18 | 34.96438 | -102.95947 | 36874 ft | 525 kts | 86° |
| 2026-04-22 23:19 | 34.96751 | -102.87085 | 36880 ft | 524 kts | 86° |
| 2026-04-22 23:19 | 34.97073 | -102.78217 | 36884 ft | 523 kts | 86° |
| 2026-04-22 23:20 | 34.97401 | -102.69347 | 36886 ft | 523 kts | 86° |
| 2026-04-22 23:20 | 34.97739 | -102.60502 | 36883 ft | 522 kts | 86° |
| 2026-04-22 23:21 | 34.98077 | -102.51734 | 36879 ft | 521 kts | 86° |
| 2026-04-22 23:21 | 34.98428 | -102.42929 | 36880 ft | 521 kts | 86° |
| 2026-04-22 23:22 | 34.98780 | -102.34131 | 36880 ft | 520 kts | 87° |
| 2026-04-22 23:22 | 34.99142 | -102.25349 | 36874 ft | 520 kts | 87° |
| 2026-04-22 23:23 | 34.99479 | -102.16598 | 36870 ft | 520 kts | 88° |
| 2026-04-22 23:23 | 34.99738 | -102.07797 | 36868 ft | 519 kts | 88° |
| 2026-04-22 23:24 | 35.00035 | -101.99043 | 36862 ft | 518 kts | 88° |
| 2026-04-22 23:24 | 35.00085 | -101.90288 | 36862 ft | 518 kts | 91° |
| 2026-04-22 23:25 | 35.00016 | -101.81535 | 36848 ft | 518 kts | 91° |
| 2026-04-22 23:25 | 35.00019 | -101.72749 | 36837 ft | 516 kts | 90° |
| 2026-04-22 23:26 | 35.00032 | -101.64056 | 36842 ft | 514 kts | 90° |
| 2026-04-22 23:26 | 35.00049 | -101.55396 | 36846 ft | 514 kts | 90° |
| 2026-04-22 23:27 | 35.00077 | -101.46645 | 36848 ft | 514 kts | 90° |
| 2026-04-22 23:27 | 35.00109 | -101.37972 | 36845 ft | 514 kts | 90° |
| 2026-04-22 23:28 | 35.00151 | -101.29271 | 36835 ft | 514 kts | 90° |
| 2026-04-22 23:28 | 35.00195 | -101.20614 | 36829 ft | 513 kts | 90° |
| 2026-04-22 23:29 | 35.00248 | -101.11942 | 36824 ft | 513 kts | 90° |
| 2026-04-22 23:29 | 35.00306 | -101.03219 | 36831 ft | 514 kts | 90° |
| 2026-04-22 23:30 | 35.00359 | -100.94577 | 36838 ft | 513 kts | 91° |
| 2026-04-22 23:30 | 35.00284 | -100.85895 | 36840 ft | 513 kts | 91° |
| 2026-04-22 23:31 | 35.00203 | -100.77212 | 36833 ft | 512 kts | 91° |
| 2026-04-22 23:31 | 35.00141 | -100.68564 | 36823 ft | 512 kts | 91° |
| 2026-04-22 23:32 | 35.00095 | -100.59885 | 36809 ft | 512 kts | 90° |
| 2026-04-22 23:32 | 35.00050 | -100.51220 | 36799 ft | 512 kts | 90° |
| 2026-04-22 23:33 | 35.00018 | -100.42551 | 36791 ft | 512 kts | 90° |
| 2026-04-22 23:33 | 34.99985 | -100.33920 | 36785 ft | 511 kts | 91° |
| 2026-04-22 23:34 | 34.99966 | -100.25268 | 36780 ft | 511 kts | 91° |
| 2026-04-22 23:34 | 34.99946 | -100.16623 | 36781 ft | 511 kts | 90° |
| 2026-04-22 23:35 | 34.99939 | -100.08000 | 36787 ft | 511 kts | 90° |
| 2026-04-22 23:35 | 35.00265 | -99.99350 | 36807 ft | 511 kts | 83° |
| 2026-04-22 23:36 | 35.01437 | -99.90819 | 36813 ft | 510 kts | 78° |
| 2026-04-22 23:36 | 35.02796 | -99.82378 | 36814 ft | 509 kts | 79° |
| 2026-04-22 23:37 | 35.04093 | -99.73901 | 36838 ft | 508 kts | 79° |
| 2026-04-22 23:37 | 35.05359 | -99.65460 | 36856 ft | 507 kts | 79° |
| 2026-04-22 23:38 | 35.06634 | -99.57009 | 36863 ft | 506 kts | 79° |
| 2026-04-22 23:38 | 35.07911 | -99.48624 | 36867 ft | 506 kts | 79° |
| 2026-04-22 23:39 | 35.09212 | -99.40159 | 36863 ft | 507 kts | 79° |
| 2026-04-22 23:39 | 35.10516 | -99.31729 | 36857 ft | 506 kts | 80° |
| 2026-04-22 23:40 | 35.11831 | -99.23269 | 36854 ft | 506 kts | 80° |
| 2026-04-22 23:40 | 35.13144 | -99.14857 | 36856 ft | 506 kts | 79° |
| 2026-04-22 23:41 | 35.14472 | -99.06449 | 36865 ft | 505 kts | 79° |
| 2026-04-22 23:41 | 35.15794 | -98.98059 | 36872 ft | 504 kts | 79° |
| 2026-04-22 23:42 | 35.17113 | -98.89696 | 36880 ft | 504 kts | 80° |
| 2026-04-22 23:42 | 35.18321 | -98.81224 | 36887 ft | 504 kts | 81° |
| 2026-04-22 23:43 | 35.19501 | -98.72799 | 36889 ft | 504 kts | 81° |
| 2026-04-22 23:43 | 35.20693 | -98.64430 | 36891 ft | 503 kts | 81° |
| 2026-04-22 23:44 | 35.21911 | -98.55995 | 36890 ft | 502 kts | 81° |
| 2026-04-22 23:44 | 35.23133 | -98.47613 | 36890 ft | 502 kts | 81° |
| 2026-04-22 23:45 | 35.24349 | -98.39250 | 36891 ft | 502 kts | 81° |
| 2026-04-22 23:45 | 35.25573 | -98.30872 | 36893 ft | 501 kts | 81° |
| 2026-04-22 23:46 | 35.26808 | -98.22500 | 36900 ft | 501 kts | 81° |
| 2026-04-22 23:46 | 35.28047 | -98.14109 | 36906 ft | 501 kts | 81° |
| 2026-04-22 23:47 | 35.29293 | -98.05746 | 36914 ft | 501 kts | 81° |
| 2026-04-22 23:47 | 35.30542 | -97.97367 | 36919 ft | 501 kts | 81° |
| 2026-04-22 23:48 | 35.31782 | -97.89017 | 36917 ft | 501 kts | 82° |
| 2026-04-22 23:48 | 35.32932 | -97.80647 | 36918 ft | 499 kts | 82° |
| 2026-04-22 23:49 | 35.34115 | -97.72267 | 36926 ft | 497 kts | 81° |
| 2026-04-22 23:49 | 35.35203 | -97.63979 | 36930 ft | 496 kts | 85° |
| 2026-04-22 23:50 | 35.35313 | -97.55550 | 36941 ft | 493 kts | 97° |
| 2026-04-22 23:50 | 35.34448 | -97.47238 | 36943 ft | 493 kts | 100° |
| 2026-04-22 23:51 | 35.33454 | -97.38963 | 36943 ft | 493 kts | 99° |
| 2026-04-22 23:51 | 35.32558 | -97.30720 | 36945 ft | 492 kts | 99° |
| 2026-04-22 23:52 | 35.31657 | -97.22394 | 36944 ft | 492 kts | 99° |
| 2026-04-22 23:52 | 35.30754 | -97.14122 | 36943 ft | 492 kts | 99° |
| 2026-04-22 23:53 | 35.29869 | -97.05841 | 36945 ft | 492 kts | 99° |
| 2026-04-22 23:53 | 35.28980 | -96.97590 | 36947 ft | 491 kts | 98° |
| 2026-04-22 23:54 | 35.28109 | -96.89330 | 36952 ft | 491 kts | 98° |
| 2026-04-22 23:54 | 35.27231 | -96.81089 | 36958 ft | 490 kts | 98° |
| 2026-04-22 23:55 | 35.26371 | -96.72819 | 36966 ft | 490 kts | 98° |
| 2026-04-22 23:55 | 35.25931 | -96.68657 | 37096 ft | 493 kts | 98° |
| 2026-04-22 23:55 | 35.25500 | -96.64540 | 37675 ft | 490 kts | 98° |
| 2026-04-22 23:56 | 35.25074 | -96.60403 | 38090 ft | 493 kts | 98° |
| 2026-04-22 23:56 | 35.24652 | -96.56284 | 38588 ft | 494 kts | 98° |
| 2026-04-22 23:56 | 35.24217 | -96.52087 | 38947 ft | 494 kts | 98° |
| 2026-04-22 23:56 | 35.23767 | -96.48007 | 38974 ft | 493 kts | 99° |
| 2026-04-22 23:57 | 35.23277 | -96.43934 | 39078 ft | 492 kts | 99° |
| 2026-04-22 23:57 | 35.22767 | -96.39759 | 39130 ft | 492 kts | 99° |
| 2026-04-22 23:57 | 35.21770 | -96.31525 | 39165 ft | 491 kts | 99° |
| 2026-04-22 23:58 | 35.21282 | -96.27417 | 39057 ft | 489 kts | 99° |
| 2026-04-22 23:58 | 35.20799 | -96.23325 | 39023 ft | 488 kts | 99° |
| 2026-04-22 23:58 | 35.19841 | -96.15125 | 38958 ft | 488 kts | 99° |
| 2026-04-22 23:59 | 35.18883 | -96.06921 | 38954 ft | 488 kts | 99° |
| 2026-04-22 23:59 | 35.17938 | -95.98737 | 38954 ft | 488 kts | 99° |
| 2026-04-23 00:00 | 35.16526 | -95.86447 | 38984 ft | 488 kts | 98° |
| 2026-04-23 00:01 | 35.15591 | -95.78271 | 39000 ft | 488 kts | 98° |
| 2026-04-23 00:01 | 35.14664 | -95.70067 | 39014 ft | 488 kts | 99° |
| 2026-04-23 00:02 | 35.13730 | -95.61832 | 39013 ft | 489 kts | 99° |
| 2026-04-23 00:02 | 35.12821 | -95.53655 | 39008 ft | 491 kts | 98° |
| 2026-04-23 00:03 | 35.11837 | -95.45364 | 39004 ft | 494 kts | 99° |
| 2026-04-23 00:03 | 35.10758 | -95.37117 | 38999 ft | 494 kts | 99° |
| 2026-04-23 00:04 | 35.09690 | -95.28844 | 38997 ft | 494 kts | 100° |
| 2026-04-23 00:04 | 35.08651 | -95.20633 | 39001 ft | 493 kts | 99° |
| 2026-04-23 00:05 | 35.07616 | -95.12390 | 39006 ft | 493 kts | 99° |
| 2026-04-23 00:05 | 35.06588 | -95.04158 | 39008 ft | 493 kts | 99° |
| 2026-04-23 00:06 | 35.05559 | -94.95881 | 39008 ft | 493 kts | 99° |
| 2026-04-23 00:06 | 35.04545 | -94.87659 | 39007 ft | 492 kts | 99° |
| 2026-04-23 00:07 | 35.03526 | -94.79374 | 39008 ft | 492 kts | 99° |
| 2026-04-23 00:07 | 35.02523 | -94.71159 | 39011 ft | 492 kts | 99° |
| 2026-04-23 00:08 | 35.01529 | -94.62968 | 39015 ft | 492 kts | 98° |
| 2026-04-23 00:08 | 35.00532 | -94.54730 | 39020 ft | 491 kts | 98° |
| 2026-04-23 00:09 | 34.99511 | -94.46485 | 39022 ft | 491 kts | 99° |
| 2026-04-23 00:09 | 34.98379 | -94.38332 | 39028 ft | 491 kts | 99° |
| 2026-04-23 00:10 | 34.97248 | -94.30163 | 39035 ft | 490 kts | 100° |
| 2026-04-23 00:10 | 34.96140 | -94.21973 | 39044 ft | 490 kts | 99° |
| 2026-04-23 00:11 | 34.95041 | -94.13792 | 39048 ft | 490 kts | 99° |
| 2026-04-23 00:11 | 34.93950 | -94.05634 | 39052 ft | 489 kts | 99° |
| 2026-04-23 00:12 | 34.92862 | -93.97451 | 39050 ft | 490 kts | 99° |
| 2026-04-23 00:12 | 34.91783 | -93.89294 | 39046 ft | 489 kts | 99° |
| 2026-04-23 00:13 | 34.90708 | -93.81133 | 39039 ft | 489 kts | 99° |
| 2026-04-23 00:13 | 34.89640 | -93.72970 | 39038 ft | 489 kts | 99° |
| 2026-04-23 00:14 | 34.88572 | -93.64787 | 39040 ft | 489 kts | 98° |
| 2026-04-23 00:14 | 34.87513 | -93.56599 | 39041 ft | 489 kts | 98° |
| 2026-04-23 00:15 | 34.86452 | -93.48439 | 39038 ft | 489 kts | 99° |
| 2026-04-23 00:15 | 34.85273 | -93.40323 | 39040 ft | 489 kts | 99° |
| 2026-04-23 00:16 | 34.84076 | -93.32220 | 39041 ft | 489 kts | 100° |
| 2026-04-23 00:16 | 34.82898 | -93.24081 | 39043 ft | 489 kts | 99° |
| 2026-04-23 00:17 | 34.81742 | -93.15977 | 39045 ft | 489 kts | 99° |
| 2026-04-23 00:17 | 34.80579 | -93.07842 | 39047 ft | 489 kts | 99° |
| 2026-04-23 00:18 | 34.79422 | -92.99685 | 39050 ft | 489 kts | 99° |
| 2026-04-23 00:18 | 34.78275 | -92.91550 | 39052 ft | 490 kts | 99° |
| 2026-04-23 00:19 | 34.77129 | -92.83395 | 39053 ft | 490 kts | 99° |
| 2026-04-23 00:19 | 34.75993 | -92.75266 | 39054 ft | 490 kts | 99° |
| 2026-04-23 00:20 | 34.74858 | -92.67108 | 39054 ft | 490 kts | 98° |
| 2026-04-23 00:20 | 34.73735 | -92.58994 | 39055 ft | 490 kts | 98° |
| 2026-04-23 00:21 | 34.72619 | -92.50890 | 39057 ft | 490 kts | 98° |
| 2026-04-23 00:21 | 34.71419 | -92.42765 | 39058 ft | 491 kts | 99° |
| 2026-04-23 00:22 | 34.70200 | -92.34602 | 39059 ft | 491 kts | 99° |
| 2026-04-23 00:22 | 34.69012 | -92.26452 | 39058 ft | 491 kts | 99° |
| 2026-04-23 00:23 | 34.67807 | -92.18304 | 39056 ft | 490 kts | 99° |
| 2026-04-23 00:23 | 34.67255 | -92.14274 | 38761 ft | 492 kts | 98° |
| 2026-04-23 00:23 | 34.66758 | -92.10164 | 38128 ft | 497 kts | 97° |
| 2026-04-23 00:23 | 34.66260 | -92.06027 | 37545 ft | 501 kts | 98° |
| 2026-04-23 00:24 | 34.65729 | -92.01819 | 36821 ft | 504 kts | 98° |
| 2026-04-23 00:24 | 34.65196 | -91.97641 | 36098 ft | 499 kts | 98° |
| 2026-04-23 00:24 | 34.64669 | -91.93535 | 35646 ft | 489 kts | 98° |
| 2026-04-23 00:24 | 34.64151 | -91.89487 | 34877 ft | 490 kts | 97° |
| 2026-04-23 00:25 | 34.63628 | -91.85379 | 34060 ft | 490 kts | 97° |
| 2026-04-23 00:25 | 34.63118 | -91.81350 | 33207 ft | 491 kts | 97° |
| 2026-04-23 00:25 | 34.62606 | -91.77265 | 32307 ft | 492 kts | 97° |
| 2026-04-23 00:25 | 34.62093 | -91.73149 | 31378 ft | 494 kts | 97° |
| 2026-04-23 00:26 | 34.61585 | -91.69068 | 30357 ft | 496 kts | 97° |
| 2026-04-23 00:26 | 34.61063 | -91.64889 | 29340 ft | 499 kts | 97° |
| 2026-04-23 00:26 | 34.60552 | -91.60767 | 28359 ft | 501 kts | 97° |
| 2026-04-23 00:26 | 34.60039 | -91.56608 | 27352 ft | 503 kts | 96° |
| 2026-04-23 00:27 | 34.59522 | -91.52407 | 26263 ft | 505 kts | 97° |
| 2026-04-23 00:27 | 34.59011 | -91.48255 | 25343 ft | 502 kts | 97° |
| 2026-04-23 00:27 | 34.58497 | -91.44075 | 24553 ft | 494 kts | 97° |
| 2026-04-23 00:27 | 34.58006 | -91.40050 | 24238 ft | 476 kts | 97° |
| 2026-04-23 00:28 | 34.57534 | -91.36161 | 23985 ft | 460 kts | 97° |
| 2026-04-23 00:28 | 34.57067 | -91.32349 | 23716 ft | 446 kts | 97° |
| 2026-04-23 00:28 | 34.56589 | -91.28728 | 23465 ft | 432 kts | 98° |
| 2026-04-23 00:28 | 34.56105 | -91.25191 | 23142 ft | 422 kts | 98° |
| 2026-04-23 00:29 | 34.55625 | -91.21670 | 22750 ft | 417 kts | 98° |
| 2026-04-23 00:29 | 34.55165 | -91.18237 | 22314 ft | 413 kts | 98° |
| 2026-04-23 00:29 | 34.54722 | -91.14861 | 21868 ft | 410 kts | 98° |
| 2026-04-23 00:29 | 34.54272 | -91.11441 | 21405 ft | 406 kts | 98° |
| 2026-04-23 00:30 | 34.53831 | -91.08116 | 20926 ft | 403 kts | 98° |
| 2026-04-23 00:30 | 34.53385 | -91.04746 | 20437 ft | 400 kts | 98° |
| 2026-04-23 00:30 | 34.52954 | -91.01454 | 19955 ft | 397 kts | 98° |
| 2026-04-23 00:30 | 34.52521 | -90.98152 | 19473 ft | 394 kts | 98° |
| 2026-04-23 00:31 | 34.52097 | -90.94916 | 19000 ft | 392 kts | 98° |
| 2026-04-23 00:31 | 34.51672 | -90.91663 | 18523 ft | 389 kts | 97° |
| 2026-04-23 00:31 | 34.51248 | -90.88414 | 18047 ft | 386 kts | 97° |
| 2026-04-23 00:31 | 34.50832 | -90.85213 | 17579 ft | 384 kts | 97° |
| 2026-04-23 00:32 | 34.50445 | -90.82053 | 17166 ft | 378 kts | 94° |
| 2026-04-23 00:32 | 34.50509 | -90.78925 | 16912 ft | 366 kts | 78° |
| 2026-04-23 00:32 | 34.51286 | -90.76052 | 16508 ft | 358 kts | 60° |
| 2026-04-23 00:32 | 34.52666 | -90.73568 | 16047 ft | 353 kts | 48° |
| 2026-04-23 00:33 | 34.54279 | -90.71347 | 15582 ft | 351 kts | 45° |
| 2026-04-23 00:33 | 34.55933 | -90.69168 | 15142 ft | 350 kts | 46° |
| 2026-04-23 00:33 | 34.57544 | -90.66986 | 14727 ft | 348 kts | 47° |
| 2026-04-23 00:33 | 34.59124 | -90.64745 | 14308 ft | 346 kts | 48° |
| 2026-04-23 00:34 | 34.60663 | -90.62501 | 13888 ft | 344 kts | 49° |
| 2026-04-23 00:34 | 34.62168 | -90.60278 | 13475 ft | 342 kts | 49° |
| 2026-04-23 00:34 | 34.63650 | -90.58003 | 13064 ft | 340 kts | 51° |
| 2026-04-23 00:34 | 34.65078 | -90.55738 | 12662 ft | 339 kts | 51° |
| 2026-04-23 00:35 | 34.66515 | -90.53444 | 12259 ft | 337 kts | 51° |
| 2026-04-23 00:35 | 34.67933 | -90.51194 | 11875 ft | 335 kts | 51° |
| 2026-04-23 00:35 | 34.69352 | -90.48972 | 11710 ft | 325 kts | 51° |
| 2026-04-23 00:35 | 34.70728 | -90.46829 | 11565 ft | 315 kts | 51° |
| 2026-04-23 00:36 | 34.72059 | -90.44748 | 11428 ft | 306 kts | 51° |
| 2026-04-23 00:36 | 34.73330 | -90.42754 | 11276 ft | 297 kts | 51° |
| 2026-04-23 00:36 | 34.74600 | -90.40762 | 11027 ft | 293 kts | 51° |
| 2026-04-23 00:36 | 34.75844 | -90.38798 | 10726 ft | 291 kts | 52° |
| 2026-04-23 00:37 | 34.77082 | -90.36853 | 10399 ft | 290 kts | 51° |
| 2026-04-23 00:37 | 34.78318 | -90.34921 | 10072 ft | 289 kts | 52° |
| 2026-04-23 00:37 | 34.79539 | -90.33007 | 9751 ft | 288 kts | 52° |
| 2026-04-23 00:37 | 34.80775 | -90.31067 | 9424 ft | 288 kts | 52° |
| 2026-04-23 00:38 | 34.81993 | -90.29151 | 9093 ft | 287 kts | 53° |
| 2026-04-23 00:38 | 34.83217 | -90.27225 | 8762 ft | 287 kts | 53° |
| 2026-04-23 00:38 | 34.84439 | -90.25300 | 8432 ft | 288 kts | 53° |
| 2026-04-23 00:38 | 34.85653 | -90.23383 | 8200 ft | 283 kts | 53° |
| 2026-04-23 00:39 | 34.86830 | -90.21526 | 8087 ft | 274 kts | 53° |
| 2026-04-23 00:39 | 34.87974 | -90.19717 | 7968 ft | 265 kts | 54° |
| 2026-04-23 00:39 | 34.89089 | -90.17962 | 7778 ft | 260 kts | 54° |
| 2026-04-23 00:39 | 34.90187 | -90.16226 | 7522 ft | 257 kts | 54° |
| 2026-04-23 00:40 | 34.91274 | -90.14510 | 7235 ft | 255 kts | 54° |
| 2026-04-23 00:40 | 34.92368 | -90.12826 | 7071 ft | 251 kts | 48° |
| 2026-04-23 00:40 | 34.93675 | -90.11493 | 7359 ft | 251 kts | 29° |
| 2026-04-23 00:40 | 34.95322 | -90.10838 | 7714 ft | 252 kts | 7° |
| 2026-04-23 00:41 | 34.97095 | -90.10721 | 7921 ft | 255 kts | 358° |
| 2026-04-23 00:41 | 34.98876 | -90.10810 | 8152 ft | 255 kts | 355° |
| 2026-04-23 00:41 | 35.00649 | -90.10934 | 8265 ft | 256 kts | 355° |
| 2026-04-23 00:41 | 35.02449 | -90.11004 | 7880 ft | 257 kts | 358° |
| 2026-04-23 00:42 | 35.04236 | -90.10995 | 7466 ft | 254 kts | 359° |
| 2026-04-23 00:42 | 35.05965 | -90.10963 | 7085 ft | 250 kts | 359° |
| 2026-04-23 00:42 | 35.07722 | -90.10922 | 6702 ft | 249 kts | 360° |
| 2026-04-23 00:42 | 35.09433 | -90.10885 | 6319 ft | 248 kts | 360° |
| 2026-04-23 00:43 | 35.11160 | -90.10872 | 5894 ft | 247 kts | 358° |
| 2026-04-23 00:43 | 35.12865 | -90.10902 | 5396 ft | 246 kts | 357° |
| 2026-04-23 00:43 | 35.14568 | -90.10944 | 4932 ft | 243 kts | 357° |
| 2026-04-23 00:43 | 35.16246 | -90.10992 | 4484 ft | 241 kts | 357° |
| 2026-04-23 00:44 | 35.17929 | -90.11013 | 4029 ft | 240 kts | 0° |
| 2026-04-23 00:44 | 35.19483 | -90.10416 | 3661 ft | 236 kts | 36° |
| 2026-04-23 00:44 | 35.20541 | -90.08917 | 3486 ft | 231 kts | 68° |
| 2026-04-23 00:44 | 35.20972 | -90.07029 | 3301 ft | 231 kts | 85° |
| 2026-04-23 00:45 | 35.21081 | -90.05082 | 3114 ft | 230 kts | 92° |
| 2026-04-23 00:45 | 35.21035 | -90.03133 | 2932 ft | 229 kts | 96° |
| 2026-04-23 00:45 | 35.20791 | -90.01236 | 2718 ft | 224 kts | 116° |
| 2026-04-23 00:45 | 35.19969 | -89.99654 | 2618 ft | 219 kts | 135° |
| 2026-04-23 00:46 | 35.18712 | -89.98756 | 2442 ft | 206 kts | 170° |
| 2026-04-23 00:46 | 35.17316 | -89.98618 | 2312 ft | 194 kts | 184° |
| 2026-04-23 00:46 | 35.16004 | -89.98727 | 2212 ft | 182 kts | 186° |
| 2026-04-23 00:46 | 35.14780 | -89.98841 | 2216 ft | 177 kts | 185° |
| 2026-04-23 00:47 | 35.13521 | -89.98908 | 1926 ft | 179 kts | 183° |
| 2026-04-23 00:47 | 35.12308 | -89.98920 | 1676 ft | 170 kts | 181° |
| 2026-04-23 00:47 | 35.11163 | -89.98897 | 1460 ft | 160 kts | 181° |
| 2026-04-23 00:47 | 35.10069 | -89.98865 | 1278 ft | 154 kts | 180° |
| 2026-04-23 00:48 | 35.08987 | -89.98834 | 1081 ft | 157 kts | 180° |
| 2026-04-23 00:48 | 35.07893 | -89.98804 | 871 ft | 156 kts | 179° |
| 2026-04-23 00:48 | 35.06806 | -89.98778 | 664 ft | 156 kts | 180° |
| 2026-04-23 00:48 | 35.05707 | -89.98770 | 451 ft | 156 kts | 179° |
| 2026-04-23 00:49 | 35.04626 | -89.98736 | 286 ft | 154 kts | 179° |
| 2026-04-23 00:49 | 35.03708 | -89.98717 | 295 ft | 96 kts | 179° |
| 2026-04-23 00:49 | 35.03298 | -89.98708 | 306 ft | 30 kts | 175° |
| 2026-04-23 00:49 | 35.03180 | -89.98666 | 308 ft | 15 kts | 157° |
| 2026-04-23 00:50 | 35.03102 | -89.98590 | 312 ft | 13 kts | 133° |
| 2026-04-23 00:50 | 35.03075 | -89.98500 | 315 ft | 11 kts | 58° |
| 2026-04-23 00:50 | 35.03162 | -89.98472 | 313 ft | 15 kts | 358° |
| 2026-04-23 00:50 | 35.03287 | -89.98474 | 310 ft | 20 kts | 359° |
| 2026-04-23 00:51 | 35.03446 | -89.98477 | 307 ft | 24 kts | 359° |
| 2026-04-23 00:51 | 35.03631 | -89.98483 | 300 ft | 29 kts | 358° |
| 2026-04-23 00:51 | 35.03847 | -89.98492 | 296 ft | 32 kts | 359° |
| 2026-04-23 00:51 | 35.04086 | -89.98497 | 296 ft | 34 kts | 359° |
| 2026-04-23 00:52 | 35.04333 | -89.98501 | 292 ft | 37 kts | 359° |
| 2026-04-23 00:52 | 35.04601 | -89.98505 | 290 ft | 39 kts | 359° |
| 2026-04-23 00:52 | 35.04891 | -89.98511 | 285 ft | 42 kts | 359° |
| 2026-04-23 00:52 | 35.05126 | -89.98511 | 280 ft | 30 kts | 1° |
| 2026-04-23 00:53 | 35.05356 | -89.98511 | 273 ft | 35 kts | 0° |
| 2026-04-23 00:53 | 35.05615 | -89.98508 | 266 ft | 39 kts | 1° |
| 2026-04-23 00:53 | 35.05875 | -89.98505 | 260 ft | 31 kts | 358° |
| 2026-04-23 00:53 | 35.06005 | -89.98495 | 257 ft | 14 kts | 49° |
| 2026-04-23 00:54 | 35.06021 | -89.98373 | 260 ft | 15 kts | 91° |
| 2026-04-23 00:54 | 35.06018 | -89.98240 | 260 ft | 16 kts | 92° |
| 2026-04-23 00:54 | 35.06013 | -89.98089 | 260 ft | 18 kts | 92° |
| 2026-04-23 00:54 | 35.06009 | -89.97925 | 262 ft | 19 kts | 92° |
| 2026-04-23 00:55 | 35.05998 | -89.97756 | 264 ft | 20 kts | 102° |
| 2026-04-23 00:55 | 35.05967 | -89.97607 | 265 ft | 11 kts | 99° |
| 2026-04-23 00:55 | 35.06013 | -89.97540 | 266 ft | 11 kts | 9° |
| 2026-04-23 00:55 | 35.06105 | -89.97540 | 265 ft | 15 kts | 359° |
| 2026-04-23 00:56 | 35.06187 | -89.97523 | 263 ft | 9 kts | 61° |
| 2026-04-23 00:56 | 35.06187 | -89.97453 | 263 ft | 3 kts | 120° |
| 2026-04-23 00:56 | 35.06168 | -89.97445 | 264 ft | 3 kts | 186° |
| 2026-04-23 00:56 | 35.06143 | -89.97448 | 264 ft | 4 kts | 183° |
| 2026-04-23 00:57 | 35.06126 | -89.97449 | 264 ft | 0 kts | 183° |